Time;durP1;ratioP1;P1;durP2;ratioP2;P2;SDS_P1;SDS_P2;PMS_P1;PMS_P2;Temp;Humidity;BMP_temperature;BMP_pressure;BME280_temperature;BME280_humidity;BME280_pressure;Samples;Min_cycle;Max_cycle;Signal;HPM_P1;HPM_P2
2022/08/25 00:01:14;;;;;;;16.90;9.40;;;;;;;;;;5035701;28;20046;-79
2022/08/25 00:03:41;;;;;;;13.82;8.23;;;;;;;;;;5035717;28;20045;-79
2022/08/25 00:06:07;;;;;;;16.63;8.88;;;;;;;;;;5002671;28;20046;-78
2022/08/25 00:08:36;;;;;;;16.27;9.18;;;;;;;;;;5036402;28;20050;-79
2022/08/25 00:11:03;;;;;;;19.02;9.20;;;;;;;;;;5035722;28;20108;-78
2022/08/25 00:13:29;;;;;;;15.18;8.43;;;;;;;;;;5035966;28;20053;-79
2022/08/25 00:15:55;;;;;;;13.48;7.38;;;;;;;;;;5035506;28;20050;-79
2022/08/25 00:18:21;;;;;;;;;;;;;;;;;;5035886;28;20049;-79
2022/08/25 00:20:48;;;;;;;14.38;7.80;;;;;;;;;;5035475;28;19921;-80
2022/08/25 00:23:14;;;;;;;17.13;8.20;;;;;;;;;;5035606;28;20081;-80
2022/08/25 00:25:40;;;;;;;15.43;7.50;;;;;;;;;;5036325;28;20045;-80
2022/08/25 00:28:06;;;;;;;13.10;7.13;;;;;;;;;;5035418;28;20088;-80
2022/08/25 00:30:32;;;;;;;16.67;7.40;;;;;;;;;;5034998;28;20136;-79
2022/08/25 00:32:59;;;;;;;13.52;7.03;;;;;;;;;;5035263;28;20041;-80
2022/08/25 00:35:26;;;;;;;15.15;7.13;;;;;;;;;;5035271;28;20144;-75
2022/08/25 00:37:52;;;;;;;16.45;7.15;;;;;;;;;;5035957;28;20123;-80
2022/08/25 00:40:19;;;;;;;14.93;7.18;;;;;;;;;;5035115;28;20049;-79
2022/08/25 00:42:45;;;;;;;13.25;6.93;;;;;;;;;;5016615;28;20453;-80
2022/08/25 00:45:11;;;;;;;17.17;7.25;;;;;;;;;;5035025;28;20056;-79
2022/08/25 00:47:40;;;;;;;14.65;6.97;;;;;;;;;;5035251;28;20536;-75
2022/08/25 00:50:07;;;;;;;;;;;;;;;;;;5035013;28;20406;-78
2022/08/25 00:52:44;;;;;;;15.95;6.93;;;;;;;;;;5035216;28;19925;-78
2022/08/25 00:55:15;;;;;;;15.75;7.25;;;;;;;;;;5034871;28;20056;-79
2022/08/25 00:57:46;;;;;;;14.93;6.68;;;;;;;;;;5035236;28;20473;-79
2022/08/25 01:00:12;;;;;;;12.43;6.22;;;;;;;;;;5017153;28;20176;-79
2022/08/25 01:02:38;;;;;;;15.90;6.60;;;;;;;;;;5034570;28;20049;-78
2022/08/25 01:05:05;;;;;;;14.20;6.75;;;;;;;;;;5034603;28;20045;-78
2022/08/25 01:07:32;;;;;;;15.68;6.30;;;;;;;;;;5034806;28;20045;-74
2022/08/25 01:09:59;;;;;;;16.48;6.82;;;;;;;;;;5034187;28;20514;-79
2022/08/25 01:12:25;;;;;;;17.92;6.25;;;;;;;;;;5035213;28;20057;-79
2022/08/25 01:14:52;;;;;;;15.43;6.43;;;;;;;;;;5034604;28;20419;-78
2022/08/25 01:17:19;;;;;;;14.43;6.82;;;;;;;;;;5017322;28;20052;-79
2022/08/25 01:19:45;;;;;;;16.85;7.32;;;;;;;;;;5034228;28;20053;-78
2022/08/25 01:22:11;;;;;;;;;;;;;;;;;;5034712;28;20044;-78
2022/08/25 01:24:44;;;;;;;13.18;6.30;;;;;;;;;;5034255;28;20012;-79
2022/08/25 01:27:10;;;;;;;18.85;6.35;;;;;;;;;;5034055;28;20085;-78
2022/08/25 01:29:37;;;;;;;14.43;6.28;;;;;;;;;;5034501;28;20061;-79
2022/08/25 01:32:05;;;;;;;15.85;6.60;;;;;;;;;;5034108;28;20046;-76
2022/08/25 01:34:33;;;;;;;12.80;6.45;;;;;;;;;;5034237;28;20049;-81
2022/08/25 01:37:00;;;;;;;14.15;6.50;;;;;;;;;;5034166;28;20060;-79
2022/08/25 01:39:27;;;;;;;13.57;6.30;;;;;;;;;;5033966;28;20049;-77
2022/08/25 01:42:03;;;;;;;15.57;6.57;;;;;;;;;;5033922;28;20099;-77
2022/08/25 01:44:29;;;;;;;14.52;6.53;;;;;;;;;;5034410;28;20485;-78
2022/08/25 01:46:57;;;;;;;15.93;6.47;;;;;;;;;;5034396;28;20045;-78
2022/08/25 01:49:23;;;;;;;12.40;6.10;;;;;;;;;;5033854;28;20148;-79
2022/08/25 01:51:49;;;;;;;;;;;;;;;;;;5033955;28;20068;-76
2022/08/25 01:54:15;;;;;;;16.42;6.50;;;;;;;;;;5033453;28;20290;-80
2022/08/25 01:56:40;;;;;;;;;;;;;;;;;;5017007;28;20046;-79
2022/08/25 01:59:07;;;;;;;14.75;6.20;;;;;;;;;;5033744;28;20425;-78
2022/08/25 02:01:33;;;;;;;;;;;;;;;;;;5017347;28;20123;-78
2022/08/25 02:03:59;;;;;;;17.63;6.80;;;;;;;;;;5032900;28;19925;-79
2022/08/25 02:06:26;;;;;;;;;;;;;;;;;;5034053;28;20111;-80
2022/08/25 02:08:53;;;;;;;15.60;6.00;;;;;;;;;;5033688;28;20007;-83
2022/08/25 02:11:20;;;;;;;16.60;6.80;;;;;;;;;;5015858;28;20065;-77
2022/08/25 02:13:47;;;;;;;12.68;6.28;;;;;;;;;;5033852;28;20049;-78
2022/08/25 02:16:19;;;;;;;15.68;6.18;;;;;;;;;;5033759;28;20473;-79
2022/08/25 02:18:45;;;;;;;18.45;6.00;;;;;;;;;;4999703;28;20098;-77
2022/08/25 02:21:12;;;;;;;15.52;6.25;;;;;;;;;;5033342;28;20084;-78
2022/08/25 02:23:38;;;;;;;14.18;6.70;;;;;;;;;;5034192;28;20088;-74
2022/08/25 02:26:04;;;;;;;;;;;;;;;;;;5033828;28;20076;-77
2022/08/25 02:28:30;;;;;;;15.20;6.32;;;;;;;;;;5033479;28;20357;-80
2022/08/25 02:30:56;;;;;;;;;;;;;;;;;;5033330;28;20053;-79
2022/08/25 02:33:22;;;;;;;17.38;6.13;;;;;;;;;;5033335;28;19921;-81
2022/08/25 02:35:48;;;;;;;;;;;;;;;;;;5033706;28;20072;-77
2022/08/25 02:38:14;;;;;;;18.15;6.28;;;;;;;;;;5033595;28;20357;-77
2022/08/25 02:40:40;;;;;;;;;;;;;;;;;;5034407;28;20077;-74
2022/08/25 02:43:06;;;;;;;14.25;5.93;;;;;;;;;;5033222;28;20435;-75
2022/08/25 02:45:32;;;;;;;17.08;6.20;;;;;;;;;;5033708;28;20084;-76
2022/08/25 02:47:58;;;;;;;12.02;6.07;;;;;;;;;;5033206;28;20393;-78
2022/08/25 02:50:25;;;;;;;15.00;6.00;;;;;;;;;;5016350;28;20045;-75
2022/08/25 02:52:51;;;;;;;15.68;6.40;;;;;;;;;;5033062;28;20052;-77
2022/08/25 02:55:17;;;;;;;14.15;5.63;;;;;;;;;;5032898;28;20494;-78
2022/08/25 02:57:44;;;;;;;14.35;6.00;;;;;;;;;;5033155;28;20049;-77
2022/08/25 03:00:11;;;;;;;14.13;6.15;;;;;;;;;;5015846;28;20049;-77
2022/08/25 03:02:37;;;;;;;16.75;6.60;;;;;;;;;;5033097;28;20076;-79
2022/08/25 03:05:03;;;;;;;;;;;;;;;;;;5034975;28;20049;-74
2022/08/25 03:07:29;;;;;;;16.48;5.95;;;;;;;;;;5037043;28;19932;-78
2022/08/25 03:09:55;;;;;;;;;;;;;;;;;;5037547;28;20492;-78
2022/08/25 03:12:21;;;;;;;14.50;6.15;;;;;;;;;;5037232;28;20004;-78
2022/08/25 03:14:47;;;;;;;14.00;5.97;;;;;;;;;;5036772;28;20049;-76
2022/08/25 03:17:14;;;;;;;20.27;6.05;;;;;;;;;;5037059;28;20124;-80
2022/08/25 03:19:40;;;;;;;16.80;6.65;;;;;;;;;;5036617;28;20091;-80
2022/08/25 03:22:06;;;;;;;;;;;;;;;;;;5037654;28;20041;-77
2022/08/25 03:24:32;;;;;;;14.10;6.22;;;;;;;;;;5036671;28;20414;-77
2022/08/25 03:26:58;;;;;;;;;;;;;;;;;;5036965;28;20045;-78
2022/08/25 03:29:25;;;;;;;12.75;6.10;;;;;;;;;;5036228;28;19956;-79
2022/08/25 03:31:53;;;;;;;14.73;5.90;;;;;;;;;;5036308;28;20108;-76
2022/08/25 03:34:20;;;;;;;15.88;6.32;;;;;;;;;;5018988;28;20049;-78
2022/08/25 03:36:47;;;;;;;13.27;6.15;;;;;;;;;;5019285;28;20049;-78
2022/08/25 03:39:14;;;;;;;15.18;6.30;;;;;;;;;;5036900;28;20108;-77
2022/08/25 03:41:40;;;;;;;19.10;6.38;;;;;;;;;;5036589;28;20053;-76
2022/08/25 03:44:06;;;;;;;;;;;;;;;;;;5037453;28;20045;-76
2022/08/25 03:46:53;;;;;;;13.52;6.28;;;;;;;;;;5036214;28;19920;-78
2022/08/25 03:49:21;;;;;;;18.20;6.57;;;;;;;;;;5035964;28;20517;-79
2022/08/25 03:51:48;;;;;;;13.98;5.50;;;;;;;;;;5018367;28;20057;-75
2022/08/25 03:54:16;;;;;;;16.17;6.10;;;;;;;;;;5036839;28;20065;-81
2022/08/25 03:56:42;;;;;;;17.27;6.13;;;;;;;;;;5019477;28;20045;-79
2022/08/25 03:59:08;;;;;;;;;;;;;;;;;;5019039;28;20053;-79
2022/08/25 04:01:38;;;;;;;15.10;6.57;;;;;;;;;;5036694;28;19928;-79
2022/08/25 04:04:05;;;;;;;15.27;5.85;;;;;;;;;;5018815;28;20127;-78
2022/08/25 04:06:32;;;;;;;15.32;6.25;;;;;;;;;;5035951;28;20041;-78
2022/08/25 04:08:58;;;;;;;16.98;6.03;;;;;;;;;;5035828;28;20132;-78
2022/08/25 04:11:25;;;;;;;15.75;6.05;;;;;;;;;;5035735;28;20049;-79
2022/08/25 04:13:52;;;;;;;13.23;5.70;;;;;;;;;;5035458;28;20064;-78
2022/08/25 04:16:19;;;;;;;14.55;5.90;;;;;;;;;;5041389;28;20046;-79
2022/08/25 04:18:46;;;;;;;15.15;6.75;;;;;;;;;;5020342;28;20057;-79
2022/08/25 04:21:12;;;;;;;11.93;6.13;;;;;;;;;;5018374;28;20087;-80
2022/08/25 04:23:40;;;;;;;13.32;6.15;;;;;;;;;;5035510;28;20041;-79
2022/08/25 04:26:09;;;;;;;13.40;6.20;;;;;;;;;;5034859;28;20049;-78
2022/08/25 04:28:36;;;;;;;17.83;6.45;;;;;;;;;;5034569;28;20536;-79
2022/08/25 04:31:05;;;;;;;17.30;6.30;;;;;;;;;;5016833;28;20058;-77
2022/08/25 04:33:31;;;;;;;22.67;7.63;;;;;;;;;;5016588;28;20060;-79
2022/08/25 04:35:58;;;;;;;24.77;9.25;;;;;;;;;;5034860;28;20049;-80
2022/08/25 04:38:24;;;;;;;21.58;8.80;;;;;;;;;;5035100;28;20049;-82
2022/08/25 04:41:00;;;;;;;21.48;8.98;;;;;;;;;;5035106;28;20068;-77
2022/08/25 04:43:30;;;;;;;;;;;;;;;;;;5035408;28;20049;-79
2022/08/25 04:45:56;;;;;;;26.63;9.55;;;;;;;;;;5034904;28;19921;-76
2022/08/25 04:48:24;;;;;;;21.63;8.95;;;;;;;;;;5034921;28;20103;-81
2022/08/25 04:50:50;;;;;;;22.23;9.20;;;;;;;;;;5018207;28;20581;-79
2022/08/25 04:53:16;;;;;;;18.83;8.77;;;;;;;;;;5036227;28;20439;-79
2022/08/25 04:55:45;;;;;;;20.20;8.57;;;;;;;;;;5035575;28;20084;-80
2022/08/25 04:58:11;;;;;;;18.80;8.30;;;;;;;;;;5035299;28;20149;-79
2022/08/25 05:00:38;;;;;;;23.05;8.77;;;;;;;;;;5034842;28;20426;-79
2022/08/25 05:03:07;;;;;;;18.13;8.43;;;;;;;;;;5017426;28;20049;-80
2022/08/25 05:05:36;;;;;;;20.88;8.70;;;;;;;;;;5034536;28;20049;-75
2022/08/25 05:08:03;;;;;;;19.13;7.30;;;;;;;;;;5034554;28;20049;-78
2022/08/25 05:10:29;;;;;;;18.38;8.20;;;;;;;;;;5033965;28;20057;-75
2022/08/25 05:12:55;;;;;;;;;;;;;;;;;;5017179;28;20171;-77
2022/08/25 05:18:07;;;;;;;16.70;8.35;;;;;;;;;;5017690;28;20049;-78
2022/08/25 05:20:36;;;;;;;16.67;8.40;;;;;;;;;;5034299;28;20428;-77
2022/08/25 05:23:02;;;;;;;17.60;8.10;;;;;;;;;;5034150;28;20042;-75
2022/08/25 05:25:28;;;;;;;16.75;7.95;;;;;;;;;;5034874;28;20080;-74
2022/08/25 05:27:54;;;;;;;;;;;;;;;;;;5017353;28;20053;-80
2022/08/25 05:30:20;;;;;;;16.27;8.18;;;;;;;;;;5033442;28;19937;-78
2022/08/25 05:32:46;;;;;;;;;;;;;;;;;;5034334;28;20056;-72
2022/08/25 05:35:12;;;;;;;17.83;8.38;;;;;;;;;;5033015;28;19921;-73
2022/08/25 05:37:38;;;;;;;;;;;;;;;;;;5034219;28;20456;-74
2022/08/25 05:40:06;;;;;;;19.42;8.18;;;;;;;;;;5033836;28;19921;-82
2022/08/25 05:42:32;;;;;;;20.70;8.98;;;;;;;;;;5015906;28;20136;-72
2022/08/25 05:45:01;;;;;;;16.40;8.60;;;;;;;;;;5034593;28;20041;-72
2022/08/25 05:47:27;;;;;;;;;;;;;;;;;;5034933;28;20049;-74
2022/08/25 05:49:55;;;;;;;19.08;9.02;;;;;;;;;;5035427;28;20310;-72
2022/08/25 05:52:21;;;;;;;17.63;8.35;;;;;;;;;;5036761;28;20179;-72
2022/08/25 05:54:46;;;;;;;;;;;;;;;;;;5017925;28;20053;-72
2022/08/25 05:57:13;;;;;;;17.00;8.55;;;;;;;;;;5033566;28;19928;-72
2022/08/25 05:59:39;;;;;;;;;;;;;;;;;;5034209;28;20524;-72
2022/08/25 06:04:49;;;;;;;20.15;8.55;;;;;;;;;;5033975;28;20075;-72
2022/08/25 06:07:16;;;;;;;;;;;;;;;;;;5034054;28;20450;-73
2022/08/25 06:09:44;;;;;;;;;;;;;;;;;;5033966;28;19920;-72
2022/08/25 06:12:11;;;;;;;21.00;8.55;;;;;;;;;;5015605;28;19925;-73
2022/08/25 06:14:37;;;;;;;21.63;9.13;;;;;;;;;;5015700;28;20050;-73
2022/08/25 06:17:03;;;;;;;;;;;;;;;;;;5033834;28;20049;-71
2022/08/25 06:19:30;;;;;;;25.10;9.60;;;;;;;;;;5032636;28;20360;-78
2022/08/25 06:21:57;;;;;;;22.33;9.80;;;;;;;;;;5033328;28;20042;-73
2022/08/25 06:24:26;;;;;;;18.48;8.82;;;;;;;;;;5033313;28;20050;-73
2022/08/25 06:26:54;;;;;;;19.98;9.82;;;;;;;;;;5033491;28;20490;-75
2022/08/25 06:29:21;;;;;;;20.45;9.13;;;;;;;;;;5032915;28;20122;-74
2022/08/25 06:31:48;;;;;;;15.82;8.73;;;;;;;;;;5015633;28;20054;-72
2022/08/25 06:34:15;;;;;;;18.63;9.90;;;;;;;;;;5032186;28;20046;-73
2022/08/25 06:36:42;;;;;;;18.25;8.85;;;;;;;;;;5032702;28;20075;-71
2022/08/25 06:39:10;;;;;;;21.65;9.18;;;;;;;;;;5032656;28;20057;-80
2022/08/25 06:41:36;;;;;;;23.55;9.90;;;;;;;;;;5019540;28;20060;-74
2022/08/25 06:44:03;;;;;;;20.08;8.70;;;;;;;;;;5037179;28;20067;-74
2022/08/25 06:46:30;;;;;;;21.60;9.70;;;;;;;;;;5036807;28;20064;-70
2022/08/25 06:48:56;;;;;;;19.27;9.18;;;;;;;;;;5036775;28;20087;-73
2022/08/25 06:51:25;;;;;;;19.25;9.20;;;;;;;;;;5036720;28;20049;-71
2022/08/25 06:53:51;;;;;;;22.25;9.32;;;;;;;;;;5036806;28;20042;-72
2022/08/25 06:56:19;;;;;;;21.40;9.02;;;;;;;;;;5037161;28;20425;-71
2022/08/25 06:58:46;;;;;;;20.88;9.30;;;;;;;;;;5019589;28;20045;-71
2022/08/25 07:01:21;;;;;;;23.60;9.30;;;;;;;;;;5037373;28;20046;-70
2022/08/25 07:03:47;;;;;;;25.90;10.05;;;;;;;;;;5036985;28;20049;-69
2022/08/25 07:06:13;;;;;;;19.67;8.45;;;;;;;;;;5019083;28;20132;-75
2022/08/25 07:08:39;;;;;;;;;;;;;;;;;;5037061;28;20053;-72
2022/08/25 07:11:06;;;;;;;19.02;8.70;;;;;;;;;;5036642;28;19928;-72
2022/08/25 07:13:35;;;;;;;17.42;8.30;;;;;;;;;;5036456;28;20501;-70
2022/08/25 07:16:03;;;;;;;21.15;8.88;;;;;;;;;;5019348;28;20041;-71
2022/08/25 07:18:29;;;;;;;26.25;9.05;;;;;;;;;;5036456;28;20106;-72
2022/08/25 07:20:56;;;;;;;17.33;8.50;;;;;;;;;;5036579;28;20132;-72
2022/08/25 07:23:23;;;;;;;26.70;8.45;;;;;;;;;;5036797;28;20045;-73
2022/08/25 07:25:49;;;;;;;24.02;7.82;;;;;;;;;;5036958;28;20053;-73
2022/08/25 07:28:16;;;;;;;21.70;8.40;;;;;;;;;;5037056;28;20053;-72
2022/08/25 07:30:42;;;;;;;19.35;8.00;;;;;;;;;;5036003;28;20057;-74
2022/08/25 07:33:08;;;;;;;18.70;8.38;;;;;;;;;;5037276;28;20045;-72
2022/08/25 07:35:36;;;;;;;;;;;;;;;;;;5019132;28;20478;-71
2022/08/25 07:38:02;;;;;;;21.73;8.48;;;;;;;;;;5036775;28;19921;-75
2022/08/25 07:40:31;;;;;;;18.33;8.80;;;;;;;;;;5036136;28;20053;-73
2022/08/25 07:42:58;;;;;;;24.00;9.73;;;;;;;;;;5036333;28;20049;-71
2022/08/25 07:45:29;;;;;;;18.65;7.97;;;;;;;;;;5035948;28;20088;-71
2022/08/25 07:48:03;;;;;;;18.02;8.07;;;;;;;;;;5035941;28;20049;-83
2022/08/25 07:50:30;;;;;;;16.80;8.30;;;;;;;;;;5035261;28;20486;-82
2022/08/25 07:52:56;;;;;;;13.63;7.88;;;;;;;;;;5036640;28;20369;-72
2022/08/25 07:55:23;;;;;;;17.63;8.25;;;;;;;;;;5019010;28;20046;-74
2022/08/25 07:57:51;;;;;;;20.52;8.15;;;;;;;;;;5035515;28;20441;-72
2022/08/25 08:00:17;;;;;;;19.88;7.85;;;;;;;;;;5036225;28;20128;-73
2022/08/25 08:02:44;;;;;;;25.75;8.40;;;;;;;;;;5035721;28;20052;-73
2022/08/25 08:05:10;;;;;;;19.13;8.00;;;;;;;;;;5035110;28;20066;-74
2022/08/25 08:07:37;;;;;;;19.30;7.25;;;;;;;;;;5017759;28;20600;-77
2022/08/25 08:10:04;;;;;;;17.25;8.25;;;;;;;;;;5035133;28;20516;-73
2022/08/25 08:12:30;;;;;;;16.50;7.47;;;;;;;;;;5035224;28;20048;-74
2022/08/25 08:14:56;;;;;;;14.85;7.07;;;;;;;;;;5035327;28;20041;-70
2022/08/25 08:17:22;;;;;;;;;;;;;;;;;;5035716;28;20045;-71
2022/08/25 08:19:48;;;;;;;18.90;7.60;;;;;;;;;;5035616;28;20261;-72
2022/08/25 08:22:14;;;;;;;;;;;;;;;;;;5035420;28;20047;-73
2022/08/25 08:24:43;;;;;;;18.15;7.25;;;;;;;;;;5034514;28;20270;-73
2022/08/25 08:27:09;;;;;;;17.35;7.35;;;;;;;;;;5034978;28;20053;-73
2022/08/25 08:29:36;;;;;;;14.20;7.25;;;;;;;;;;5001527;28;20057;-73
2022/08/25 08:32:03;;;;;;;20.58;6.90;;;;;;;;;;5000985;28;20528;-73
2022/08/25 08:34:29;;;;;;;16.08;6.72;;;;;;;;;;5034421;28;20493;-71
2022/08/25 08:36:56;;;;;;;15.38;6.65;;;;;;;;;;5017686;28;20132;-71
2022/08/25 08:39:22;;;;;;;20.88;6.90;;;;;;;;;;5034891;28;20049;-71
2022/08/25 08:42:15;;;;;;;17.30;7.47;;;;;;;;;;5016955;28;20096;-74
2022/08/25 08:44:44;;;;;;;16.48;7.28;;;;;;;;;;5034962;28;20107;-74
2022/08/25 08:47:13;;;;;;;16.85;7.25;;;;;;;;;;5034511;28;20045;-71
2022/08/25 08:49:44;;;;;;;18.42;7.00;;;;;;;;;;5017400;28;20140;-72
2022/08/25 08:52:14;;;;;;;16.50;6.65;;;;;;;;;;5017542;28;20038;-74
2022/08/25 08:54:41;;;;;;;20.65;7.10;;;;;;;;;;5017394;28;20045;-72
2022/08/25 08:57:08;;;;;;;21.58;7.60;;;;;;;;;;5034262;28;20436;-71
2022/08/25 08:59:40;;;;;;;15.00;6.88;;;;;;;;;;5016415;28;20092;-72
2022/08/25 09:02:14;;;;;;;16.77;6.85;;;;;;;;;;5033534;28;20129;-72
2022/08/25 09:04:41;;;;;;;24.13;7.80;;;;;;;;;;5035446;28;20444;-73
2022/08/25 09:07:11;;;;;;;17.40;6.60;;;;;;;;;;5017054;28;20049;-73
2022/08/25 09:09:39;;;;;;;15.48;6.85;;;;;;;;;;5034617;28;20045;-70
2022/08/25 09:12:15;;;;;;;15.88;6.72;;;;;;;;;;5034292;28;20046;-72
2022/08/25 09:15:02;;;;;;;15.50;6.97;;;;;;;;;;5017239;28;20057;-72
2022/08/25 09:17:44;;;;;;;16.85;6.47;;;;;;;;;;5033596;28;20056;-72
2022/08/25 09:20:29;;;;;;;14.80;5.75;;;;;;;;;;5033911;28;20057;-71
2022/08/25 09:23:14;;;;;;;15.38;6.03;;;;;;;;;;5016064;28;20505;-76
2022/08/25 09:25:49;;;;;;;13.70;5.95;;;;;;;;;;5033733;28;20049;-72
2022/08/25 09:28:18;;;;;;;13.52;5.70;;;;;;;;;;5034054;28;20045;-71
2022/08/25 09:30:47;;;;;;;15.02;6.00;;;;;;;;;;5015871;28;20068;-70
2022/08/25 09:33:17;;;;;;;14.18;6.13;;;;;;;;;;5033624;28;20098;-73
2022/08/25 09:35:44;;;;;;;14.00;5.53;;;;;;;;;;5016342;28;20088;-74
2022/08/25 09:38:12;;;;;;;12.65;5.35;;;;;;;;;;5033831;28;20184;-76
2022/08/25 09:40:39;;;;;;;14.70;5.63;;;;;;;;;;5000359;28;20049;-72
2022/08/25 09:43:17;;;;;;;18.90;6.28;;;;;;;;;;5033605;28;20124;-74
2022/08/25 09:45:47;;;;;;;14.95;5.53;;;;;;;;;;5015894;28;20528;-76
2022/08/25 09:48:23;;;;;;;17.70;5.90;;;;;;;;;;5034014;28;20366;-71
2022/08/25 09:50:50;;;;;;;18.70;5.55;;;;;;;;;;5033947;28;20072;-73
2022/08/25 09:53:17;;;;;;;14.35;4.85;;;;;;;;;;5033746;28;20135;-74
2022/08/25 09:55:54;;;;;;;13.85;5.00;;;;;;;;;;5033342;28;20053;-73
2022/08/25 09:58:22;;;;;;;13.25;4.80;;;;;;;;;;5016847;28;20095;-72
2022/08/25 10:01:06;;;;;;;10.75;4.70;;;;;;;;;;5033304;28;20156;-71
2022/08/25 10:03:32;;;;;;;12.93;4.80;;;;;;;;;;5033425;28;20049;-71
2022/08/25 10:06:06;;;;;;;10.73;4.75;;;;;;;;;;5015956;28;20049;-73
2022/08/25 10:08:33;;;;;;;12.68;4.45;;;;;;;;;;5033710;28;20124;-72
2022/08/25 10:11:04;;;;;;;16.85;4.68;;;;;;;;;;5016180;28;20060;-72
2022/08/25 10:13:35;;;;;;;17.63;4.95;;;;;;;;;;5033915;28;20042;-72
2022/08/25 10:16:07;;;;;;;15.93;4.78;;;;;;;;;;5032495;28;20061;-70
2022/08/25 10:18:37;;;;;;;15.68;4.70;;;;;;;;;;5033594;28;20054;-71
2022/08/25 10:21:05;;;;;;;9.98;4.63;;;;;;;;;;5033113;28;20136;-72
2022/08/25 10:23:32;;;;;;;14.80;4.40;;;;;;;;;;5033361;28;20129;-72
2022/08/25 10:26:05;;;;;;;13.43;4.72;;;;;;;;;;5033982;28;20049;-72
2022/08/25 10:28:40;;;;;;;12.63;5.13;;;;;;;;;;5033051;28;20132;-71
2022/08/25 10:31:21;;;;;;;18.77;5.32;;;;;;;;;;5032678;28;20115;-71
2022/08/25 10:33:59;;;;;;;14.85;5.30;;;;;;;;;;5032851;28;20076;-70
2022/08/25 10:36:36;;;;;;;15.70;4.93;;;;;;;;;;5033621;28;20072;-73
2022/08/25 10:39:02;;;;;;;;;;;;;;;;;;5021879;28;20046;-77
2022/08/25 10:41:34;;;;;;;11.63;5.13;;;;;;;;;;5018484;28;19928;-73
2022/08/25 10:45:41;;;;;;;15.27;5.45;;;;;;;;;;5033844;28;20045;-74
2022/08/25 10:47:21;;;;;;;12.35;4.80;;;;;;;;;;5032603;28;20049;-76
2022/08/25 10:49:50;;;;;;;15.70;4.47;;;;;;;;;;5032231;28;20053;-77
2022/08/25 10:52:19;;;;;;;16.58;4.70;;;;;;;;;;5015136;28;20038;-74
2022/08/25 10:54:49;;;;;;;13.98;4.45;;;;;;;;;;5032224;28;20404;-77
2022/08/25 10:57:28;;;;;;;11.35;4.68;;;;;;;;;;5032289;28;20079;-75
2022/08/25 11:00:04;;;;;;;10.40;4.30;;;;;;;;;;5032524;28;20049;-80
2022/08/25 11:02:46;;;;;;;16.15;4.70;;;;;;;;;;5015578;28;20056;-76
2022/08/25 11:05:25;;;;;;;13.60;5.60;;;;;;;;;;5032628;28;20054;-71
2022/08/25 11:07:54;;;;;;;14.57;5.22;;;;;;;;;;5033263;28;20092;-71
2022/08/25 11:10:39;;;;;;;12.27;4.93;;;;;;;;;;5032180;28;20519;-76
2022/08/25 11:13:09;;;;;;;15.20;4.95;;;;;;;;;;5032338;28;20042;-75
2022/08/25 11:15:43;;;;;;;13.18;4.40;;;;;;;;;;5032499;28;20046;-74
2022/08/25 11:18:11;;;;;;;11.68;5.22;;;;;;;;;;5033435;28;20053;-75
2022/08/25 11:20:57;;;;;;;13.00;5.15;;;;;;;;;;5032578;28;20054;-77
2022/08/25 11:23:46;;;;;;;15.98;4.85;;;;;;;;;;5032534;28;20323;-73
2022/08/25 11:26:15;;;;;;;14.27;4.97;;;;;;;;;;5034803;28;20470;-74
2022/08/25 11:28:53;;;;;;;17.35;4.70;;;;;;;;;;5039738;28;20066;-77
2022/08/25 11:31:21;;;;;;;13.40;4.55;;;;;;;;;;4996772;28;20073;-73
2022/08/25 11:33:48;;;;;;;13.77;4.38;;;;;;;;;;4995783;28;20042;-72
2022/08/25 11:36:29;;;;;;;13.90;4.80;;;;;;;;;;4997193;28;20066;-79
2022/08/25 11:39:07;;;;;;;13.98;4.70;;;;;;;;;;4996645;28;20050;-73
2022/08/25 11:41:43;;;;;;;11.90;4.82;;;;;;;;;;4979432;28;20074;-74
2022/08/25 11:44:37;;;;;;;13.10;5.23;;;;;;;;;;4995814;28;20042;-74
2022/08/25 11:47:03;;;;;;;17.60;5.10;;;;;;;;;;4997637;28;20054;-75
2022/08/25 11:49:48;;;;;;;14.70;4.82;;;;;;;;;;4996702;28;20053;-76
2022/08/25 11:52:35;;;;;;;10.77;4.93;;;;;;;;;;4995584;28;20046;-75
2022/08/25 11:55:13;;;;;;;11.90;4.53;;;;;;;;;;4995430;28;20054;-88
2022/08/25 11:57:41;;;;;;;12.88;4.85;;;;;;;;;;4996521;28;20058;-74
2022/08/25 12:00:13;;;;;;;12.02;4.95;;;;;;;;;;4996759;28;20109;-73
2022/08/25 12:02:46;;;;;;;14.80;4.97;;;;;;;;;;4996501;28;20134;-78
2022/08/25 12:05:18;;;;;;;14.13;5.03;;;;;;;;;;4996902;28;20045;-76
2022/08/25 12:07:47;;;;;;;13.75;4.60;;;;;;;;;;4995540;28;20054;-72
2022/08/25 12:10:20;;;;;;;12.20;4.78;;;;;;;;;;4995743;28;20050;-74
2022/08/25 12:12:46;;;;;;;14.32;4.90;;;;;;;;;;5000813;28;20100;-78
2022/08/25 12:15:30;;;;;;;12.05;4.80;;;;;;;;;;4998902;28;20467;-77
2022/08/25 12:18:15;;;;;;;11.80;4.28;;;;;;;;;;4995559;28;20450;-73
2022/08/25 12:20:53;;;;;;;12.00;4.75;;;;;;;;;;4997460;28;20402;-74
2022/08/25 12:23:35;;;;;;;12.07;4.43;;;;;;;;;;4996286;28;20054;-73
2022/08/25 12:26:04;;;;;;;12.93;4.75;;;;;;;;;;4996525;28;20100;-73
2022/08/25 12:28:45;;;;;;;11.93;4.50;;;;;;;;;;4994595;28;20042;-82
2022/08/25 12:31:30;;;;;;;9.52;3.97;;;;;;;;;;5033510;28;20060;-70
2022/08/25 12:34:21;;;;;;;10.90;4.15;;;;;;;;;;5034825;28;20045;-77
2022/08/25 12:36:58;;;;;;;11.00;4.20;;;;;;;;;;5035133;28;20100;-78
2022/08/25 12:39:30;;;;;;;10.95;4.10;;;;;;;;;;5001953;28;20350;-73
2022/08/25 12:42:03;;;;;;;9.85;4.20;;;;;;;;;;5034718;28;20092;-83
2022/08/25 12:44:35;;;;;;;16.42;4.18;;;;;;;;;;5035175;28;20135;-82
2022/08/25 12:47:12;;;;;;;14.75;4.30;;;;;;;;;;5034722;28;20049;-73
2022/08/25 12:49:38;;;;;;;11.77;4.30;;;;;;;;;;5034882;28;20455;-82
2022/08/25 12:52:13;;;;;;;11.32;4.20;;;;;;;;;;5017104;28;20132;-76
2022/08/25 12:54:51;;;;;;;11.90;4.50;;;;;;;;;;5034859;28;20045;-74
2022/08/25 12:57:25;;;;;;;14.63;4.45;;;;;;;;;;5034879;28;20041;-78
2022/08/25 12:59:53;;;;;;;13.38;4.30;;;;;;;;;;5034657;28;20049;-79
2022/08/25 13:02:35;;;;;;;12.02;4.32;;;;;;;;;;5017243;28;20056;-74
2022/08/25 13:05:04;;;;;;;10.95;4.63;;;;;;;;;;5034760;28;20045;-77
2022/08/25 13:07:57;;;;;;;10.98;4.07;;;;;;;;;;5000639;28;20481;-83
2022/08/25 13:10:46;;;;;;;10.40;4.25;;;;;;;;;;5028995;28;20046;-75
2022/08/25 13:13:15;;;;;;;10.10;4.40;;;;;;;;;;5020563;28;20057;-75
2022/08/25 13:15:47;;;;;;;11.95;4.30;;;;;;;;;;5034224;28;20494;-74
2022/08/25 13:18:14;;;;;;;9.40;4.10;;;;;;;;;;5034754;28;20088;-75
2022/08/25 13:20:40;;;;;;;14.15;4.40;;;;;;;;;;5034969;28;20084;-76
2022/08/25 13:23:07;;;;;;;9.20;3.97;;;;;;;;;;5034265;28;20187;-76
2022/08/25 13:25:33;;;;;;;11.02;4.28;;;;;;;;;;5034130;28;20128;-72
2022/08/25 13:28:04;;;;;;;11.15;3.95;;;;;;;;;;5033340;28;20139;-72
2022/08/25 13:30:32;;;;;;;10.77;4.10;;;;;;;;;;5034414;28;20057;-76
2022/08/25 13:32:58;;;;;;;10.90;3.85;;;;;;;;;;5016817;28;20064;-73
2022/08/25 13:35:27;;;;;;;9.00;4.13;;;;;;;;;;5033828;28;20045;-74
2022/08/25 13:37:54;;;;;;;9.60;4.20;;;;;;;;;;5034291;28;20053;-75
2022/08/25 13:40:20;;;;;;;10.93;3.85;;;;;;;;;;5034613;28;20056;-76
2022/08/25 13:42:48;;;;;;;11.85;4.45;;;;;;;;;;5034198;28;20045;-74
2022/08/25 13:45:17;;;;;;;14.02;4.53;;;;;;;;;;5034711;28;20045;-77
2022/08/25 13:47:43;;;;;;;10.27;4.30;;;;;;;;;;5036627;28;20104;-74
2022/08/25 13:50:22;;;;;;;11.07;4.60;;;;;;;;;;5016227;28;20084;-73
2022/08/25 13:52:59;;;;;;;11.90;4.25;;;;;;;;;;5033557;28;20425;-75
2022/08/25 13:55:28;;;;;;;14.63;4.65;;;;;;;;;;5033445;28;20049;-73
2022/08/25 13:57:56;;;;;;;14.98;6.50;;;;;;;;;;5034198;28;20042;-72
2022/08/25 14:00:43;;;;;;;12.38;4.20;;;;;;;;;;5033571;28;20474;-73
2022/08/25 14:03:28;;;;;;;9.60;4.13;;;;;;;;;;5033443;28;20068;-73
2022/08/25 14:06:04;;;;;;;11.20;4.70;;;;;;;;;;4999994;28;20045;-73
2022/08/25 14:08:30;;;;;;;;;;;;;;;;;;5016222;28;20179;-73
2022/08/25 14:11:13;;;;;;;14.18;4.45;;;;;;;;;;5034047;28;19997;-73
2022/08/25 14:13:40;;;;;;;11.40;4.05;;;;;;;;;;5033049;28;20516;-73
2022/08/25 14:16:10;;;;;;;8.68;3.80;;;;;;;;;;5016048;28;20045;-73
2022/08/25 14:18:36;;;;;;;15.05;4.10;;;;;;;;;;5033359;28;20057;-72
2022/08/25 14:21:08;;;;;;;13.82;4.30;;;;;;;;;;5033061;28;20575;-73
2022/08/25 14:23:35;;;;;;;9.70;4.40;;;;;;;;;;5033355;28;20113;-73
2022/08/25 14:26:01;;;;;;;12.35;4.28;;;;;;;;;;5033491;28;20050;-81
2022/08/25 14:28:29;;;;;;;12.18;4.53;;;;;;;;;;5033326;28;20126;-79
2022/08/25 14:31:13;;;;;;;10.77;3.90;;;;;;;;;;5033936;28;20422;-73
2022/08/25 14:33:43;;;;;;;14.15;4.45;;;;;;;;;;5033431;28;20112;-73
2022/08/25 14:36:09;;;;;;;13.05;4.40;;;;;;;;;;5015630;28;20097;-79
2022/08/25 14:38:37;;;;;;;11.07;4.55;;;;;;;;;;5033293;28;20128;-78
2022/08/25 14:41:04;;;;;;;10.38;4.57;;;;;;;;;;5015792;28;20169;-73
2022/08/25 14:43:31;;;;;;;13.05;4.80;;;;;;;;;;5033083;28;20052;-73
2022/08/25 14:45:57;;;;;;;12.02;4.38;;;;;;;;;;5032799;28;20508;-72
2022/08/25 14:48:23;;;;;;;10.60;4.70;;;;;;;;;;5032986;28;20041;-71
2022/08/25 14:50:50;;;;;;;10.80;4.70;;;;;;;;;;5015771;28;20096;-73
2022/08/25 14:53:16;;;;;;;12.52;4.60;;;;;;;;;;5033300;28;20049;-75
2022/08/25 14:55:42;;;;;;;10.75;4.55;;;;;;;;;;5033016;28;20099;-74
2022/08/25 14:58:08;;;;;;;12.73;5.18;;;;;;;;;;5015698;28;20049;-72
2022/08/25 15:00:43;;;;;;;13.18;5.10;;;;;;;;;;5015831;28;20046;-73